Airfield :
LOGIN :

Register | Disclaimer

   EN    FR    IT 

 










Legend :    VFR   Marginal VFR   IFR   Intensive IFR   Very Intensive IFR
Visi :
Ceiling :
>= 8 km
>= 3000ft
5 to 8 km
1000 to 3000 ft
1500m to 5 km
500 to 1000 ft
800 to 1500m
200 to 500 ft
< 800m
< 200 ft
Symbols :   Thunderstorms  Fog  Heavy snow  Heavy precipitations  Wind > 20 kt
SIGMETs :     Misc.  Thunderstorms  Icing  Turbulence  Mountain Waves  Volcanic Ashes







- Airport Elevation : 144 ft
- IATA code : PGF
- Download approach charts


LFMP - Perpignan

CURRENT METAR :
  • 162200Z AUTO 34006KT CAVOK 17/16 Q1025

EXPIRED METARs :
  • 162130Z AUTO 33006KT CAVOK 17/16 Q1025 TEMPO 0200 FG VV///
  • 162100Z AUTO 34006KT 9000 NSC 17/16 Q1025 TEMPO 0200 FG VV///
  • 162030Z AUTO 33005KT CAVOK 17/16 Q1025 TEMPO 0200 FG VV///
  • 162000Z AUTO 34005KT CAVOK 18/16 Q1025 TEMPO 0200 FG VV///
  • 161930Z AUTO 33003KT 290V360 CAVOK 18/16 Q1025 TEMPO 0200 FG VV///
  • 161900Z AUTO 35005KT CAVOK 18/16 Q1025 TEMPO 0200 FG VV///

TAF AMD TAF LFMP
Valid from the 16 at 17:00 until the 17 at 15:00 UTC


161716Z 1617/1715 12012KT CAVOK
BECMG 1617/1619 34012KT BKN010
TEMPO 1619/1708 VRB02KT 1200 BR OVC003
PROB30
TEMPO 1619/1707 0200 FG VV///
BECMG 1707/1709 14015KT
BECMG 1710/1712 14020G30KT CAVOK
ATIS : +33 4 68 63 75 12
No reported NOTAMs for that airfield.



MET'MAP, your aeronautical weather chart ! - Copyright ORBIFLY December 2007 - Disclaimer

ORBIFLY MET'MAP TEAM :

Programming & Development : Alexandra Zaïnal
Concept & Development : Baudouin d'Aumeries
Co-Development & Prog : Marc-Olivier Méhu
Technical & hardware support : Manuel Goepfert

Contact : metmap@orbifly.com




SOURCES & CREDITS :

   NOAA